createdAt,value
2018-03-24T00:00:26.409Z,64.53
2018-03-24T00:02:53.968Z,51.10
2018-03-24T00:05:21.512Z,81.83
2018-03-24T00:07:49.064Z,72.63
2018-03-24T00:10:16.605Z,72.10
2018-03-24T00:12:44.157Z,66.87
2018-03-24T00:15:12.461Z,77.63
2018-03-24T00:17:40.029Z,76.27
2018-03-24T00:20:08.335Z,67.07
2018-03-24T00:22:36.652Z,78.13
2018-03-24T00:25:04.200Z,75.70
2018-03-24T00:27:31.760Z,73.00
2018-03-24T00:29:59.299Z,62.13
2018-03-24T00:32:26.844Z,63.27
2018-03-24T00:34:54.407Z,57.70
2018-03-24T00:37:21.939Z,60.77
2018-03-24T00:39:50.262Z,63.60
2018-03-24T00:42:17.806Z,55.70
2018-03-24T00:44:45.368Z,64.53
2018-03-24T00:47:12.913Z,59.73
2018-03-24T00:49:40.500Z,62.83
2018-03-24T00:52:08.053Z,61.73
2018-03-24T00:54:35.617Z,59.20
2018-03-24T00:57:03.156Z,62.40
2018-03-24T00:59:30.707Z,57.57
2018-03-24T01:01:58.263Z,57.60
2018-03-24T01:04:25.855Z,63.90
2018-03-24T01:06:53.415Z,57.40
2018-03-24T01:09:20.980Z,63.17
2018-03-24T01:11:48.521Z,68.33
2018-03-24T01:14:16.085Z,62.53
2018-03-24T01:16:43.637Z,67.00
2018-03-24T01:19:11.192Z,60.90
2018-03-24T01:21:39.508Z,64.43
2018-03-24T01:24:07.063Z,65.70
2018-03-24T01:26:34.595Z,66.23
2018-03-24T01:29:02.147Z,67.90
2018-03-24T01:31:30.456Z,67.17
2018-03-24T01:33:58.024Z,65.07
2018-03-24T01:36:26.337Z,59.90
2018-03-24T01:38:54.663Z,64.33
2018-03-24T01:41:22.221Z,62.30
2018-03-24T01:43:50.561Z,64.90
2018-03-24T01:46:18.095Z,70.43
2018-03-24T01:48:46.441Z,64.87
2018-03-24T01:51:13.977Z,62.63
2018-03-24T01:53:53.305Z,63.87
2018-03-24T01:56:20.863Z,63.70
2018-03-24T01:58:48.408Z,60.87
2018-03-24T02:01:16.746Z,71.43
2018-03-24T02:03:44.277Z,60.60
2018-03-24T02:06:11.844Z,68.43
2018-03-24T02:08:39.388Z,69.33
2018-03-24T02:11:06.958Z,70.20
2018-03-24T02:13:35.272Z,74.23
2018-03-24T02:16:02.846Z,68.17
2018-03-24T02:18:31.160Z,69.90
2018-03-24T02:20:59.297Z,56.60
2018-03-24T02:23:27.071Z,67.90
2018-03-24T02:25:54.642Z,61.33
2018-03-24T02:28:22.193Z,68.67
2018-03-24T02:30:49.778Z,61.80
2018-03-24T02:33:18.099Z,69.97
2018-03-24T02:35:45.666Z,72.23
2018-03-24T02:38:13.983Z,70.70
2018-03-24T02:40:42.317Z,70.63
2018-03-24T02:43:09.871Z,66.97
2018-03-24T02:45:37.449Z,70.80
2018-03-24T02:48:05.765Z,68.70
2018-03-24T02:50:33.338Z,63.57
2018-03-24T02:53:01.661Z,61.10
2018-03-24T02:55:29.248Z,60.00
2018-03-24T02:57:56.807Z,61.33
2018-03-24T03:00:25.143Z,58.67
2018-03-24T03:02:52.697Z,68.20
2018-03-24T03:05:20.278Z,72.33
2018-03-24T03:07:48.586Z,62.77
2018-03-24T03:10:16.162Z,60.33
2018-03-24T03:12:44.479Z,63.23
2018-03-24T03:15:12.058Z,64.40
2018-03-24T03:17:39.702Z,67.83
2018-03-24T03:20:07.212Z,59.53
2018-03-24T03:22:35.554Z,65.03
2018-03-24T03:25:03.115Z,58.17
2018-03-24T03:27:30.684Z,63.80
2018-03-24T03:29:59.008Z,65.70
2018-03-24T03:32:26.578Z,59.50
2018-03-24T03:34:54.889Z,64.50
2018-03-24T03:37:22.460Z,66.33
2018-03-24T03:39:50.783Z,57.37
2018-03-24T03:42:18.353Z,87.33
2018-03-24T03:44:45.898Z,76.70
2018-03-24T03:47:13.458Z,68.00
2018-03-24T03:49:41.002Z,68.60
2018-03-24T03:52:09.330Z,59.87
2018-03-24T03:54:36.877Z,65.03
2018-03-24T03:57:05.219Z,59.83
2018-03-24T03:59:32.783Z,57.43
2018-03-24T04:02:00.353Z,58.07
2018-03-24T04:04:28.664Z,53.60
2018-03-24T04:06:56.237Z,57.00
2018-03-24T04:09:24.551Z,61.43
2018-03-24T04:11:52.132Z,68.87
2018-03-24T04:14:19.730Z,64.63
2018-03-24T04:16:47.302Z,68.57
2018-03-24T04:19:15.613Z,74.93
2018-03-24T04:21:43.183Z,62.63
2018-03-24T04:24:10.753Z,68.33
2018-03-24T04:26:38.333Z,69.77
2018-03-24T04:29:05.902Z,65.33
2018-03-24T04:31:33.473Z,57.50
2018-03-24T04:34:01.021Z,68.33
2018-03-24T04:36:28.570Z,59.83
2018-03-24T04:38:56.141Z,66.07
2018-03-24T04:41:23.697Z,63.03
2018-03-24T04:43:51.274Z,61.03
2018-03-24T04:46:18.828Z,70.77
2018-03-24T04:48:46.389Z,64.63
2018-03-24T04:51:13.942Z,62.40
2018-03-24T04:53:41.517Z,69.37
2018-03-24T04:56:09.074Z,61.37
2018-03-24T04:58:36.654Z,64.47
2018-03-24T05:01:04.205Z,66.03
2018-03-24T05:03:31.781Z,74.80
2018-03-24T05:05:59.333Z,68.33
2018-03-24T05:08:26.904Z,75.60
2018-03-24T05:10:54.453Z,70.03
2018-03-24T05:13:22.814Z,72.60
2018-03-24T05:15:50.365Z,64.87
2018-03-24T05:18:17.928Z,76.10
2018-03-24T05:20:46.242Z,84.80
2018-03-24T05:23:13.813Z,77.03
2018-03-24T05:25:42.141Z,65.17
2018-03-24T05:28:09.711Z,76.53
2018-03-24T05:30:38.025Z,72.50
2018-03-24T05:33:05.590Z,69.97
2018-03-24T05:35:33.909Z,63.03
2018-03-24T05:38:01.906Z,67.23
2018-03-24T05:40:29.453Z,55.77
2018-03-24T05:42:57.018Z,72.53
2018-03-24T05:45:24.569Z,64.50
2018-03-24T05:47:52.149Z,67.30
2018-03-24T05:50:19.694Z,66.87
2018-03-24T05:52:48.025Z,60.53
2018-03-24T05:55:15.594Z,59.90
2018-03-24T05:57:43.909Z,62.20
2018-03-24T06:00:11.481Z,68.23
2018-03-24T06:02:39.793Z,72.20
2018-03-24T06:05:07.362Z,73.00
2018-03-24T06:07:35.685Z,67.33
2018-03-24T06:10:03.257Z,72.97
2018-03-24T06:12:30.825Z,89.83
2018-03-24T06:14:58.394Z,72.70
2018-03-24T06:17:25.960Z,82.40
2018-03-24T06:19:53.532Z,76.53
2018-03-24T06:22:21.090Z,77.10
2018-03-24T06:24:48.657Z,71.20
2018-03-24T06:27:16.209Z,72.40
2018-03-24T06:29:43.786Z,63.30
2018-03-24T06:32:11.334Z,64.43
2018-03-24T06:34:38.930Z,66.47
2018-03-24T06:37:09.109Z,73.03
2018-03-24T06:39:36.673Z,63.87
2018-03-24T06:42:04.254Z,78.57
2018-03-24T06:44:31.821Z,70.27
2018-03-24T06:46:59.365Z,62.07
2018-03-24T06:49:26.933Z,64.77
2018-03-24T06:51:54.523Z,63.67
2018-03-24T06:54:22.108Z,72.33
2018-03-24T06:56:49.664Z,72.93
2018-03-24T06:59:17.242Z,64.83
2018-03-24T07:01:44.810Z,59.00
2018-03-24T07:04:12.360Z,71.30
2018-03-24T07:06:39.937Z,57.93
2018-03-24T07:09:08.272Z,67.67
2018-03-24T07:11:35.858Z,81.07
2018-03-24T07:14:03.421Z,64.80
2018-03-24T07:16:31.770Z,58.53
2018-03-24T07:18:59.338Z,61.53
2018-03-24T07:21:26.909Z,63.80
2018-03-24T07:23:54.467Z,67.30
2018-03-24T07:26:22.805Z,69.60
2018-03-24T07:28:50.385Z,67.13
2018-03-24T07:31:17.982Z,60.60
2018-03-24T07:33:45.524Z,60.90
2018-03-24T07:36:13.917Z,62.87
2018-03-24T07:38:41.483Z,64.33
2018-03-24T07:41:09.120Z,63.83
2018-03-24T07:43:36.821Z,59.73
2018-03-24T07:46:04.649Z,53.87
2018-03-24T07:48:33.214Z,59.70
2018-03-24T07:51:00.999Z,58.00
2018-03-24T07:53:28.789Z,58.53
2018-03-24T07:55:57.148Z,59.47
2018-03-24T07:58:24.793Z,61.17
2018-03-24T08:00:52.423Z,61.60
2018-03-24T08:03:20.692Z,60.90
2018-03-24T08:05:48.438Z,55.33
2018-03-24T08:08:17.003Z,48.53
2018-03-24T08:10:44.746Z,62.53
2018-03-24T08:13:12.454Z,53.83
2018-03-24T08:15:40.160Z,49.00
2018-03-24T08:18:07.929Z,57.87
2018-03-24T08:20:35.528Z,51.00
2018-03-24T08:23:03.191Z,55.90
2018-03-24T08:25:31.735Z,47.87
2018-03-24T08:28:00.321Z,46.63
2018-03-24T08:30:27.929Z,46.20
2018-03-24T08:32:55.874Z,51.63
2018-03-24T08:35:24.243Z,44.17
2018-03-24T08:37:51.807Z,50.03
2018-03-24T08:40:19.399Z,45.00
2018-03-24T08:42:46.964Z,47.57
2018-03-24T08:45:14.538Z,46.47
2018-03-24T08:47:42.088Z,45.40
2018-03-24T08:50:09.720Z,47.37
2018-03-24T08:52:37.276Z,41.80
2018-03-24T08:55:04.868Z,48.33
2018-03-24T08:57:32.428Z,47.20
2018-03-24T09:00:00.006Z,40.23
2018-03-24T09:02:27.559Z,42.23
2018-03-24T09:04:55.145Z,40.90
2018-03-24T09:07:22.705Z,46.23
2018-03-24T09:09:50.262Z,40.47
2018-03-24T09:12:17.829Z,38.17
2018-03-24T09:14:45.377Z,40.80
2018-03-24T09:17:12.953Z,42.53
2018-03-24T09:19:40.505Z,35.90
2018-03-24T09:22:08.078Z,38.40
2018-03-24T09:24:35.634Z,45.13
2018-03-24T09:27:03.970Z,34.40
2018-03-24T09:29:31.521Z,38.53
2018-03-24T09:31:59.853Z,41.90
2018-03-24T09:34:27.405Z,38.33
2018-03-24T09:36:55.779Z,34.47
2018-03-24T09:39:23.330Z,34.80
2018-03-24T09:41:50.877Z,38.93
2018-03-24T09:44:19.211Z,40.30
2018-03-24T09:46:46.757Z,42.00
2018-03-24T09:49:15.093Z,31.57
2018-03-24T09:51:42.652Z,34.83
2018-03-24T09:54:10.993Z,31.83
2018-03-24T09:56:38.546Z,33.30
2018-03-24T09:59:06.117Z,35.60
2018-03-24T10:01:33.669Z,33.07
2018-03-24T10:04:02.009Z,37.43
2018-03-24T10:06:30.323Z,34.20
2018-03-24T10:08:57.888Z,34.67
2018-03-24T10:11:25.441Z,29.73
2018-03-24T10:13:53.005Z,29.63
2018-03-24T10:16:20.558Z,28.83
2018-03-24T10:18:48.138Z,30.03
2018-03-24T10:24:32.522Z,31.53
2018-03-24T10:27:00.065Z,31.30
2018-03-24T10:29:27.642Z,30.73
2018-03-24T10:31:55.189Z,27.23
2018-03-24T10:34:22.741Z,28.03
2018-03-24T10:36:51.085Z,28.97
2018-03-24T10:39:18.680Z,27.30
2018-03-24T10:41:46.234Z,27.67
2018-03-24T10:44:13.780Z,30.63
2018-03-24T10:46:41.354Z,30.23
2018-03-24T10:49:08.914Z,26.60
2018-03-24T10:51:36.486Z,32.70
2018-03-24T10:54:04.048Z,29.93
2018-03-24T10:56:31.627Z,31.90
2018-03-24T10:58:59.182Z,30.83
2018-03-24T11:01:26.785Z,28.17
2018-03-24T11:03:54.353Z,29.80
2018-03-24T11:06:21.916Z,31.50
2018-03-24T11:08:49.485Z,28.43
2018-03-24T11:11:17.864Z,28.07
2018-03-24T11:13:45.404Z,30.80
2018-03-24T11:16:12.952Z,32.10
2018-03-24T11:18:40.640Z,28.70
2018-03-24T11:21:09.045Z,26.60
2018-03-24T11:23:36.699Z,25.80
2018-03-24T11:26:04.344Z,26.83
2018-03-24T11:28:32.009Z,22.83
2018-03-24T11:30:59.658Z,32.40
2018-03-24T11:33:27.309Z,28.33
2018-03-24T11:35:54.942Z,31.17
2018-03-24T11:38:22.606Z,30.97
2018-03-24T11:40:50.289Z,34.70
2018-03-24T11:43:18.688Z,34.27
2018-03-24T11:45:46.375Z,24.97
2018-03-24T11:48:14.089Z,25.37
2018-03-24T11:50:41.782Z,28.33
2018-03-24T11:53:09.412Z,34.23
2018-03-24T11:55:37.048Z,34.17
2018-03-24T11:58:04.741Z,30.23
2018-03-24T12:00:32.477Z,29.30
2018-03-24T12:03:00.105Z,33.30
2018-03-24T12:05:27.777Z,31.73
2018-03-24T12:07:56.213Z,30.33
2018-03-24T12:10:24.644Z,30.17
2018-03-24T12:12:53.039Z,34.33
2018-03-24T12:15:20.745Z,27.27
2018-03-24T12:17:48.413Z,31.87
2018-03-24T12:20:16.814Z,31.20
2018-03-24T12:22:45.221Z,35.63
2018-03-24T12:25:12.889Z,32.43
2018-03-24T12:27:41.291Z,39.13
2018-03-24T12:30:08.951Z,33.90
2018-03-24T12:32:36.673Z,31.53
2018-03-24T12:35:04.307Z,34.80
2018-03-24T12:37:33.834Z,38.10
2018-03-24T12:40:01.504Z,32.93
2018-03-24T12:42:29.202Z,32.53
2018-03-24T12:44:56.838Z,31.33
2018-03-24T12:47:24.481Z,36.57
2018-03-24T12:49:52.947Z,36.17
2018-03-24T12:52:20.575Z,36.20
2018-03-24T12:54:49.814Z,35.47
2018-03-24T12:57:17.480Z,30.37
2018-03-24T12:59:45.170Z,38.90
2018-03-24T13:02:13.548Z,31.00
2018-03-24T13:04:41.298Z,35.57
2018-03-24T13:07:12.235Z,32.50
2018-03-24T13:09:45.725Z,31.57
2018-03-24T13:12:13.493Z,30.33
2018-03-24T13:14:41.164Z,26.57
2018-03-24T13:17:12.254Z,31.97
2018-03-24T13:19:41.277Z,33.53
2018-03-24T13:22:08.911Z,37.73
2018-03-24T13:24:37.305Z,30.20
2018-03-24T13:27:05.100Z,28.27
2018-03-24T13:29:32.772Z,29.63
2018-03-24T13:32:00.447Z,34.43
2018-03-24T13:34:32.649Z,44.50
2018-03-24T13:37:05.232Z,40.27
2018-03-24T13:39:33.376Z,33.37
2018-03-24T13:42:01.706Z,35.33
2018-03-24T13:44:30.032Z,36.97
2018-03-24T13:46:57.675Z,34.20
2018-03-24T13:49:25.197Z,26.37
2018-03-24T13:51:53.538Z,30.23
2018-03-24T13:54:21.098Z,29.10
2018-03-24T13:56:48.675Z,30.90
2018-03-24T13:59:16.218Z,28.90
2018-03-24T14:01:43.789Z,29.20
2018-03-24T14:04:11.341Z,30.73
2018-03-24T14:06:39.668Z,34.23
2018-03-24T14:09:07.982Z,30.43
2018-03-24T14:11:35.630Z,28.33
2018-03-24T14:14:03.906Z,30.03
2018-03-24T14:16:31.543Z,28.70
2018-03-24T14:18:59.185Z,28.00
2018-03-24T14:21:26.788Z,28.60
2018-03-24T14:23:55.185Z,60.07
2018-03-24T14:26:22.782Z,39.57
2018-03-24T14:28:50.445Z,28.90
2018-03-24T14:31:18.039Z,32.77
2018-03-24T14:33:45.641Z,29.00
2018-03-24T14:36:13.217Z,33.77
2018-03-24T14:38:40.828Z,30.60
2018-03-24T14:41:08.418Z,30.60
2018-03-24T14:43:36.045Z,27.73
2018-03-24T14:46:03.624Z,32.57
2018-03-24T14:48:32.002Z,31.37
2018-03-24T14:50:59.585Z,33.10
2018-03-24T14:53:27.189Z,32.37
2018-03-24T14:55:54.830Z,32.00
2018-03-24T14:58:23.219Z,32.57
2018-03-24T15:00:50.967Z,30.10
2018-03-24T15:03:18.584Z,30.77
2018-03-24T15:05:46.165Z,26.87
2018-03-24T15:08:14.634Z,30.00
2018-03-24T15:10:42.238Z,29.63
2018-03-24T15:13:10.402Z,35.90
2018-03-24T15:15:38.002Z,30.70
2018-03-24T15:18:06.382Z,33.43
2018-03-24T15:20:34.823Z,31.97
2018-03-24T15:23:02.446Z,33.80
2018-03-24T15:25:30.814Z,31.53
2018-03-24T15:27:58.400Z,31.60
2018-03-24T15:30:38.686Z,30.63
2018-03-24T15:33:19.046Z,32.27
2018-03-24T15:39:08.081Z,32.67
2018-03-24T15:41:35.675Z,31.47
2018-03-24T15:44:03.312Z,31.47
2018-03-24T15:46:31.767Z,34.30
2018-03-24T15:48:59.345Z,34.10
2018-03-24T15:51:27.848Z,30.23
2018-03-24T15:53:56.320Z,33.03
2018-03-24T15:56:24.271Z,30.40
2018-03-24T15:58:52.302Z,32.60
2018-03-24T16:01:19.999Z,29.17
2018-03-24T16:03:48.380Z,30.30
2018-03-24T16:06:16.766Z,32.20
2018-03-24T16:08:44.386Z,32.27
2018-03-24T16:11:11.979Z,31.83
2018-03-24T16:13:39.609Z,28.43
2018-03-24T16:16:07.207Z,31.00
2018-03-24T16:18:34.848Z,35.70
2018-03-24T16:21:02.452Z,34.03
2018-03-24T16:23:30.046Z,31.77
2018-03-24T16:25:57.606Z,29.27
2018-03-24T16:28:25.184Z,30.27
2018-03-24T16:30:52.748Z,33.50
2018-03-24T16:33:20.330Z,33.13
2018-03-24T16:35:47.890Z,28.70
2018-03-24T16:38:15.477Z,31.10
2018-03-24T16:40:43.039Z,31.80
2018-03-24T16:43:10.667Z,33.90
2018-03-24T16:45:39.125Z,37.50
2018-03-24T16:48:06.723Z,45.90
2018-03-24T16:50:34.612Z,48.63
2018-03-24T16:53:02.585Z,56.43
2018-03-24T16:55:30.206Z,55.27
2018-03-24T16:57:57.983Z,37.20
2018-03-24T17:00:25.899Z,31.37
2018-03-24T17:02:54.469Z,32.70
2018-03-24T17:05:22.438Z,29.17
2018-03-24T17:07:50.333Z,39.40
2018-03-24T17:10:18.269Z,36.30
2018-03-24T17:12:46.074Z,35.53
2018-03-24T17:15:13.725Z,33.57
2018-03-24T17:17:41.562Z,36.03
2018-03-24T17:20:09.402Z,42.70
2018-03-24T17:22:37.019Z,33.63
2018-03-24T17:25:04.623Z,31.20
2018-03-24T17:27:32.939Z,32.50
2018-03-24T17:30:00.502Z,39.63
2018-03-24T17:32:28.050Z,29.33
2018-03-24T17:34:56.386Z,36.27
2018-03-24T17:37:23.949Z,34.23
2018-03-24T17:39:51.521Z,28.20
2018-03-24T17:42:19.060Z,28.60
2018-03-24T17:44:47.385Z,30.30
2018-03-24T17:47:14.930Z,28.97
2018-03-24T17:49:42.498Z,35.97
2018-03-24T17:52:10.045Z,27.03
2018-03-24T17:54:38.380Z,26.63
2018-03-24T17:57:05.929Z,28.90
2018-03-24T17:59:33.496Z,29.73
2018-03-24T18:02:01.820Z,31.27
2018-03-24T18:04:29.384Z,25.83
2018-03-24T18:06:56.934Z,31.17
2018-03-24T18:09:29.545Z,31.60
2018-03-24T18:11:57.285Z,29.53
2018-03-24T18:14:25.609Z,30.27
2018-03-24T18:16:53.178Z,33.27
2018-03-24T18:19:20.725Z,30.70
2018-03-24T18:21:49.078Z,35.13
2018-03-24T18:24:16.646Z,29.90
2018-03-24T18:26:44.500Z,38.00
2018-03-24T18:29:12.331Z,43.07
2018-03-24T18:31:40.236Z,38.53
2018-03-24T18:34:08.012Z,39.63
2018-03-24T18:36:35.854Z,37.97
2018-03-24T18:39:10.235Z,32.00
2018-03-24T18:41:38.611Z,36.27
2018-03-24T18:44:06.426Z,34.67
2018-03-24T18:46:34.588Z,32.13
2018-03-24T18:49:02.359Z,32.70
2018-03-24T18:51:30.226Z,36.33
2018-03-24T18:54:04.098Z,32.63
2018-03-24T18:56:32.289Z,37.23
2018-03-24T18:59:00.067Z,36.77
2018-03-24T19:01:28.698Z,41.20
2018-03-24T19:04:02.273Z,32.57
2018-03-24T19:06:30.432Z,40.53
2018-03-24T19:08:58.865Z,39.70
2018-03-24T19:11:26.760Z,35.20
2018-03-24T19:13:54.591Z,31.73
2018-03-24T19:16:22.252Z,36.27
2018-03-24T19:18:49.842Z,37.80
2018-03-24T19:21:17.414Z,35.57
2018-03-24T19:23:44.965Z,36.33
2018-03-24T19:26:12.538Z,36.90
2018-03-24T19:28:40.089Z,47.07
2018-03-24T19:31:08.420Z,43.57
2018-03-24T19:33:35.980Z,44.63
2018-03-24T19:36:03.581Z,45.10
2018-03-24T19:38:31.134Z,46.93
2018-03-24T19:40:58.799Z,37.10
2018-03-24T19:43:26.342Z,41.93
2018-03-24T19:45:54.673Z,46.10
2018-03-24T19:48:22.221Z,42.60
2018-03-24T19:50:49.849Z,40.57
2018-03-24T19:53:17.397Z,42.33
2018-03-24T19:55:44.958Z,42.30
2018-03-24T19:58:12.508Z,40.43
2018-03-24T20:00:40.085Z,39.03
2018-03-24T20:03:07.637Z,38.67
2018-03-24T20:05:35.193Z,39.13
2018-03-24T20:08:03.533Z,41.00
2018-03-24T20:10:31.388Z,36.20
2018-03-24T20:12:59.101Z,46.33
2018-03-24T20:15:26.649Z,46.53
2018-03-24T20:17:54.213Z,40.13
2018-03-24T20:20:21.868Z,41.73
2018-03-24T20:22:50.205Z,41.97
2018-03-24T20:25:17.757Z,47.53
2018-03-24T20:27:45.321Z,40.70
2018-03-24T20:30:12.898Z,37.63
2018-03-24T20:32:40.478Z,38.07
2018-03-24T20:35:08.051Z,46.10
2018-03-24T20:37:35.853Z,44.37
2018-03-24T20:40:03.434Z,45.50
2018-03-24T20:42:31.001Z,39.77
2018-03-24T20:44:58.554Z,40.03
2018-03-24T20:47:26.149Z,46.20
2018-03-24T20:49:53.693Z,45.37
2018-03-24T20:52:21.257Z,42.80
2018-03-24T20:54:48.827Z,44.80
2018-03-24T20:57:16.732Z,48.93
2018-03-24T20:59:44.565Z,50.53
2018-03-24T21:02:12.118Z,47.97
2018-03-24T21:04:40.680Z,48.47
2018-03-24T21:07:09.232Z,44.73
2018-03-24T21:09:36.998Z,46.10
2018-03-24T21:12:05.667Z,46.27
2018-03-24T21:14:33.567Z,51.53
2018-03-24T21:17:01.426Z,56.37
2018-03-24T21:19:29.958Z,46.30
2018-03-24T21:21:57.780Z,46.80
2018-03-24T21:24:26.276Z,47.03
2018-03-24T21:26:54.901Z,55.40
2018-03-24T21:29:22.759Z,54.00
2018-03-24T21:31:51.330Z,55.30
2018-03-24T21:34:19.887Z,60.17
2018-03-24T21:36:47.707Z,53.80
2018-03-24T21:39:16.145Z,55.57
2018-03-24T21:41:43.907Z,53.20
2018-03-24T21:44:11.692Z,53.47
2018-03-24T21:46:39.505Z,63.27
2018-03-24T21:49:07.300Z,71.27
2018-03-24T21:51:35.853Z,62.93
2018-03-24T21:54:03.700Z,60.30
2018-03-24T21:56:31.437Z,57.47
2018-03-24T21:58:59.761Z,57.60
2018-03-24T22:01:28.344Z,49.30
2018-03-24T22:03:56.178Z,70.50
2018-03-24T22:06:23.903Z,60.97
2018-03-24T22:08:52.559Z,60.43
2018-03-24T22:11:20.395Z,63.80
2018-03-24T22:13:48.988Z,50.30
2018-03-24T22:16:16.890Z,59.70
2018-03-24T22:18:44.637Z,62.97
2018-03-24T22:21:12.577Z,57.77
2018-03-24T22:23:40.419Z,63.50
2018-03-24T22:26:09.015Z,56.13
2018-03-24T22:28:36.759Z,54.40
2018-03-24T22:31:04.355Z,58.83
2018-03-24T22:33:31.900Z,50.73
2018-03-24T22:35:59.468Z,57.03
2018-03-24T22:38:27.012Z,47.23
2018-03-24T22:40:55.258Z,46.73
2018-03-24T22:43:22.804Z,47.67
2018-03-24T22:45:50.369Z,51.13
2018-03-24T22:48:17.909Z,61.90
2018-03-24T22:50:45.472Z,64.50
2018-03-24T22:53:13.013Z,62.87
2018-03-24T22:55:40.585Z,59.37
2018-03-24T22:58:08.902Z,47.43
2018-03-24T23:00:36.472Z,45.00
2018-03-24T23:03:04.026Z,60.97
2018-03-24T23:05:32.342Z,50.07
2018-03-24T23:07:59.960Z,56.20
2018-03-24T23:10:27.514Z,49.03
2018-03-24T23:12:55.083Z,52.67
2018-03-24T23:15:22.675Z,46.20
2018-03-24T23:17:50.262Z,46.90
2018-03-24T23:20:17.804Z,60.93
2018-03-24T23:22:45.384Z,52.93
2018-03-24T23:25:12.937Z,56.07
2018-03-24T23:27:40.525Z,51.80
2018-03-24T23:30:08.073Z,56.70
2018-03-24T23:32:35.621Z,48.30
2018-03-24T23:35:03.190Z,48.40
2018-03-24T23:37:31.500Z,51.93
2018-03-24T23:39:59.110Z,47.23
2018-03-24T23:42:26.643Z,46.57
2018-03-24T23:44:54.210Z,43.10
2018-03-24T23:47:21.753Z,49.90
2018-03-24T23:49:50.092Z,52.93
2018-03-24T23:52:17.637Z,52.30
2018-03-24T23:54:45.210Z,49.80
2018-03-24T23:57:12.774Z,60.93
2018-03-24T23:59:40.378Z,56.00
